createdAt,value
2018-12-25T00:00:37.503Z,76.28
2018-12-25T00:01:38.206Z,75.67
2018-12-25T00:02:38.851Z,75.56
2018-12-25T00:03:39.549Z,75.01
2018-12-25T00:04:40.208Z,75.01
2018-12-25T00:05:40.887Z,75.25
2018-12-25T00:06:41.538Z,75.67
2018-12-25T00:07:42.243Z,75.52
2018-12-25T00:08:42.890Z,75.67
2018-12-25T00:09:43.587Z,75.97
2018-12-25T00:10:44.228Z,75.87
2018-12-25T00:11:44.924Z,75.56
2018-12-25T00:12:45.577Z,76.28
2018-12-25T00:13:46.266Z,76.28
2018-12-25T00:14:46.919Z,76.07
2018-12-25T00:15:47.629Z,76.18
2018-12-25T00:16:48.270Z,75.22
2018-12-25T00:17:48.965Z,76.18
2018-12-25T00:18:49.639Z,76.28
2018-12-25T00:19:50.309Z,75.46
2018-12-25T00:20:50.999Z,75.46
2018-12-25T00:21:51.757Z,75.46
2018-12-25T00:22:52.399Z,75.46
2018-12-25T00:23:53.098Z,75.87
2018-12-25T00:24:53.752Z,76.18
2018-12-25T00:25:54.437Z,75.46
2018-12-25T00:26:55.094Z,76.07
2018-12-25T00:27:55.796Z,75.46
2018-12-25T00:28:56.445Z,75.25
2018-12-25T00:29:57.249Z,76.07
2018-12-25T00:30:57.904Z,75.97
2018-12-25T00:31:58.581Z,76.49
2018-12-25T00:32:59.233Z,76.28
2018-12-25T00:33:59.932Z,76.18
2018-12-25T00:35:00.575Z,76.07
2018-12-25T00:36:01.275Z,76.70
2018-12-25T00:37:01.930Z,76.59
2018-12-25T00:38:02.620Z,76.90
2018-12-25T00:39:03.260Z,76.70
2018-12-25T00:40:03.961Z,76.49
2018-12-25T00:41:04.641Z,76.90
2018-12-25T00:42:05.413Z,76.70
2018-12-25T00:43:06.061Z,76.90
2018-12-25T00:44:06.755Z,77.00
2018-12-25T00:45:07.498Z,77.00
2018-12-25T00:46:08.099Z,77.00
2018-12-25T00:47:08.762Z,77.00
2018-12-25T00:48:09.829Z,76.66
2018-12-25T00:49:14.778Z,77.00
2018-12-25T00:50:12.120Z,77.00
2018-12-25T00:51:12.769Z,77.00
2018-12-25T00:52:13.470Z,76.79
2018-12-25T00:53:14.135Z,76.97
2018-12-25T00:54:14.806Z,76.79
2018-12-25T00:55:15.459Z,76.49
2018-12-25T00:56:16.156Z,76.07
2018-12-25T00:57:16.805Z,75.87
2018-12-25T00:58:17.501Z,75.35
2018-12-25T00:59:18.151Z,75.52
2018-12-25T01:00:18.850Z,75.46
2018-12-25T01:01:19.495Z,76.28
2018-12-25T01:02:20.187Z,75.97
2018-12-25T01:03:20.839Z,76.25
2018-12-25T01:04:21.616Z,75.97
2018-12-25T01:05:22.185Z,75.46
2018-12-25T01:06:22.883Z,76.49
2018-12-25T01:07:23.529Z,75.97
2018-12-25T01:08:24.229Z,75.67
2018-12-25T01:09:24.873Z,76.28
2018-12-25T01:10:25.564Z,76.39
2018-12-25T01:11:26.218Z,75.97
2018-12-25T01:12:26.920Z,75.35
2018-12-25T01:13:27.562Z,75.56
2018-12-25T01:14:28.285Z,75.77
2018-12-25T01:15:28.908Z,75.67
2018-12-25T01:16:29.607Z,75.46
2018-12-25T01:17:30.311Z,75.67
2018-12-25T01:18:31.359Z,75.35
2018-12-25T01:19:32.024Z,76.07
2018-12-25T01:20:32.702Z,76.59
2018-12-25T01:21:33.363Z,76.39
2018-12-25T01:22:34.158Z,75.87
2018-12-25T01:23:34.800Z,76.49
2018-12-25T01:24:35.470Z,76.28
2018-12-25T01:25:36.126Z,75.56
2018-12-25T01:26:36.822Z,76.28
2018-12-25T01:27:37.471Z,75.67
2018-12-25T01:28:38.162Z,75.35
2018-12-25T01:29:38.803Z,75.15
2018-12-25T01:30:39.509Z,75.05
2018-12-25T01:31:40.569Z,75.25
2018-12-25T01:32:41.261Z,75.15
2018-12-25T01:33:41.910Z,75.77
2018-12-25T01:34:42.606Z,75.46
2018-12-25T01:35:43.259Z,74.63
2018-12-25T01:36:43.946Z,74.22
2018-12-25T01:37:44.605Z,74.22
2018-12-25T01:38:45.379Z,74.33
2018-12-25T01:39:45.948Z,74.74
2018-12-25T01:40:46.636Z,74.84
2018-12-25T01:41:47.280Z,75.25
2018-12-25T01:42:47.978Z,74.84
2018-12-25T01:43:48.626Z,74.53
2018-12-25T01:44:49.348Z,75.46
2018-12-25T01:45:49.967Z,74.67
2018-12-25T01:46:50.670Z,74.84
2018-12-25T01:47:51.326Z,74.95
2018-12-25T01:48:52.016Z,74.84
2018-12-25T01:49:52.669Z,75.05
2018-12-25T01:50:53.358Z,75.46
2018-12-25T01:51:54.013Z,75.56
2018-12-25T01:52:54.780Z,75.87
2018-12-25T01:53:55.431Z,75.77
2018-12-25T01:55:04.830Z,75.67
2018-12-25T01:56:05.473Z,75.46
2018-12-25T01:57:14.772Z,75.46
2018-12-25T01:58:15.420Z,76.28
2018-12-25T01:59:16.119Z,76.18
2018-12-25T02:00:16.773Z,76.07
2018-12-25T02:01:19.511Z,76.18
2018-12-25T02:02:20.000Z,75.67
2018-12-25T02:03:22.747Z,75.97
2018-12-25T02:04:23.412Z,76.07
2018-12-25T02:05:26.091Z,76.25
2018-12-25T02:06:26.737Z,76.18
2018-12-25T02:07:27.533Z,75.97
2018-12-25T02:08:28.111Z,76.28
2018-12-25T02:09:30.828Z,75.97
2018-12-25T02:10:31.477Z,75.94
2018-12-25T02:11:32.211Z,76.28
2018-12-25T02:12:32.865Z,76.56
2018-12-25T02:13:33.547Z,75.97
2018-12-25T02:14:34.213Z,75.97
2018-12-25T02:15:35.062Z,76.18
2018-12-25T02:16:35.707Z,75.46
2018-12-25T02:17:37.430Z,76.18
2018-12-25T02:18:38.076Z,75.35
2018-12-25T02:19:40.323Z,75.87
2018-12-25T02:20:39.420Z,75.35
2018-12-25T02:21:40.121Z,75.67
2018-12-25T02:22:40.765Z,75.15
2018-12-25T02:23:41.472Z,75.67
2018-12-25T02:24:42.121Z,75.35
2018-12-25T02:26:54.397Z,75.46
2018-12-25T02:27:55.110Z,75.56
2018-12-25T02:28:55.756Z,76.28
2018-12-25T02:29:56.479Z,75.97
2018-12-25T02:30:57.134Z,76.07
2018-12-25T02:31:57.800Z,75.56
2018-12-25T02:32:58.449Z,75.25
2018-12-25T02:33:59.146Z,74.53
2018-12-25T02:34:59.788Z,75.05
2018-12-25T02:36:07.252Z,74.53
2018-12-25T02:37:07.907Z,74.33
2018-12-25T02:38:09.620Z,74.53
2018-12-25T02:39:10.263Z,75.46
2018-12-25T02:40:10.958Z,74.74
2018-12-25T02:41:11.625Z,75.25
2018-12-25T02:42:12.301Z,74.95
2018-12-25T02:43:12.952Z,74.74
2018-12-25T02:44:13.651Z,75.05
2018-12-25T02:45:14.294Z,75.05
2018-12-25T02:46:14.992Z,75.05
2018-12-25T02:47:15.644Z,75.15
2018-12-25T02:48:16.335Z,75.25
2018-12-25T02:49:18.369Z,74.84
2018-12-25T02:50:17.678Z,75.35
2018-12-25T02:51:18.326Z,74.84
2018-12-25T02:52:19.024Z,74.84
2018-12-25T02:53:19.677Z,74.84
2018-12-25T02:54:20.374Z,74.98
2018-12-25T02:55:21.017Z,75.29
2018-12-25T02:56:21.714Z,75.46
2018-12-25T02:57:22.361Z,74.74
2018-12-25T02:58:23.061Z,75.18
2018-12-25T02:59:23.710Z,75.56
2018-12-25T03:00:24.408Z,75.08
2018-12-25T03:01:25.048Z,75.29
2018-12-25T03:02:25.746Z,75.29
2018-12-25T03:03:26.398Z,75.18
2018-12-25T03:04:27.094Z,75.18
2018-12-25T03:05:27.739Z,75.56
2018-12-25T03:06:28.436Z,75.39
2018-12-25T03:07:29.084Z,75.67
2018-12-25T03:08:29.788Z,75.05
2018-12-25T03:09:30.439Z,75.67
2018-12-25T03:10:31.130Z,75.39
2018-12-25T03:11:32.091Z,75.67
2018-12-25T03:12:32.788Z,75.60
2018-12-25T03:13:33.430Z,76.11
2018-12-25T03:14:34.126Z,75.49
2018-12-25T03:15:34.776Z,76.53
2018-12-25T03:16:35.476Z,76.28
2018-12-25T03:17:36.123Z,75.90
2018-12-25T03:18:36.814Z,75.46
2018-12-25T03:19:38.006Z,76.11
2018-12-25T03:20:38.577Z,76.32
2018-12-25T03:21:39.222Z,75.29
2018-12-25T03:22:39.919Z,75.39
2018-12-25T03:23:40.565Z,74.88
2018-12-25T03:24:41.262Z,74.26
2018-12-25T03:25:41.906Z,75.08
2018-12-25T03:26:42.621Z,74.77
2018-12-25T03:27:43.265Z,75.49
2018-12-25T03:28:43.954Z,75.39
2018-12-25T03:29:44.597Z,76.32
2018-12-25T03:30:45.300Z,75.18
2018-12-25T03:31:45.948Z,75.81
2018-12-25T03:32:46.653Z,76.01
2018-12-25T03:33:47.300Z,75.39
2018-12-25T03:34:47.985Z,75.81
2018-12-25T03:35:48.657Z,75.90
2018-12-25T03:36:49.344Z,75.81
2018-12-25T03:37:49.972Z,75.39
2018-12-25T03:38:50.677Z,75.90
2018-12-25T03:39:51.425Z,75.84
2018-12-25T03:40:52.020Z,75.70
2018-12-25T03:41:52.668Z,75.60
2018-12-25T03:42:53.372Z,75.49
2018-12-25T03:43:54.014Z,75.81
2018-12-25T03:44:54.717Z,75.49
2018-12-25T03:45:55.356Z,75.70
2018-12-25T03:47:03.790Z,76.01
2018-12-25T03:48:04.441Z,76.42
2018-12-25T03:49:05.143Z,75.49
2018-12-25T03:50:10.802Z,76.32
2018-12-25T03:51:13.240Z,76.11
2018-12-25T03:52:13.884Z,75.81
2018-12-25T03:53:14.583Z,76.21
2018-12-25T03:54:15.228Z,76.01
2018-12-25T03:55:15.929Z,76.32
2018-12-25T03:56:16.570Z,76.53
2018-12-25T03:57:17.276Z,76.21
2018-12-25T03:58:17.924Z,76.42
2018-12-25T03:59:18.615Z,75.49
2018-12-25T04:00:19.261Z,75.90
2018-12-25T04:01:19.861Z,75.39
2018-12-25T04:02:20.502Z,75.60
2018-12-25T04:03:21.203Z,75.49
2018-12-25T04:04:21.852Z,76.01
2018-12-25T04:05:22.552Z,75.60
2018-12-25T04:06:23.195Z,75.90
2018-12-25T04:07:23.904Z,76.32
2018-12-25T04:08:24.550Z,76.21
2018-12-25T04:09:27.288Z,76.01
2018-12-25T04:10:27.938Z,76.11
2018-12-25T04:11:28.639Z,75.90
2018-12-25T04:12:29.286Z,75.90
2018-12-25T04:13:30.065Z,76.53
2018-12-25T04:14:30.626Z,76.32
2018-12-25T04:15:31.323Z,75.60
2018-12-25T04:16:31.971Z,75.43
2018-12-25T04:17:32.667Z,75.84
2018-12-25T04:18:33.315Z,76.46
2018-12-25T04:19:34.011Z,76.04
2018-12-25T04:20:34.662Z,76.25
2018-12-25T04:21:35.354Z,76.32
2018-12-25T04:22:36.075Z,76.04
2018-12-25T04:23:36.700Z,76.76
2018-12-25T04:24:37.349Z,76.15
2018-12-25T04:25:38.250Z,76.83
2018-12-25T04:26:38.878Z,76.63
2018-12-25T04:27:39.519Z,76.66
2018-12-25T04:28:40.168Z,76.01
2018-12-25T04:29:40.830Z,76.15
2018-12-25T04:30:41.555Z,75.84
2018-12-25T04:31:42.130Z,76.01
2018-12-25T04:32:42.771Z,76.35
2018-12-25T04:33:43.504Z,76.21
2018-12-25T04:34:44.162Z,76.21
2018-12-25T04:35:44.848Z,76.11
2018-12-25T04:36:45.500Z,75.90
2018-12-25T04:37:53.769Z,76.32
2018-12-25T04:38:54.426Z,76.11
2018-12-25T04:40:01.775Z,76.53
2018-12-25T04:41:02.429Z,76.32
2018-12-25T04:42:05.256Z,75.81
2018-12-25T04:43:06.169Z,75.63
2018-12-25T04:44:14.814Z,75.39
2018-12-25T04:45:15.469Z,75.60
2018-12-25T04:46:23.825Z,75.60
2018-12-25T04:47:24.482Z,76.21
2018-12-25T04:48:25.165Z,76.01
2018-12-25T04:49:25.908Z,76.35
2018-12-25T04:50:29.355Z,76.01
2018-12-25T04:51:27.158Z,76.32
2018-12-25T04:52:28.881Z,76.42
2018-12-25T04:53:29.541Z,76.11
2018-12-25T04:54:31.257Z,76.01
2018-12-25T04:55:31.908Z,76.11
2018-12-25T04:56:32.594Z,76.11
2018-12-25T04:57:33.247Z,76.21
2018-12-25T04:58:33.940Z,76.01
2018-12-25T04:59:34.591Z,76.01
2018-12-25T05:00:35.285Z,76.32
2018-12-25T05:01:35.935Z,75.81
2018-12-25T05:02:37.654Z,75.70
2018-12-25T05:03:38.305Z,76.32
2018-12-25T05:04:41.049Z,76.21
2018-12-25T05:05:41.763Z,76.63
2018-12-25T05:06:43.414Z,76.32
2018-12-25T05:07:44.066Z,76.11
2018-12-25T05:08:52.341Z,76.53
2018-12-25T05:09:53.169Z,76.53
2018-12-25T05:11:02.797Z,76.53
2018-12-25T05:12:03.454Z,76.73
2018-12-25T05:13:20.836Z,76.73
2018-12-25T05:14:21.481Z,76.83
2018-12-25T05:15:22.177Z,77.04
2018-12-25T05:16:22.824Z,77.04
2018-12-25T05:17:32.328Z,76.63
2018-12-25T05:18:32.984Z,76.53
2018-12-25T05:19:33.680Z,76.42
2018-12-25T05:20:38.025Z,76.53
2018-12-25T05:21:35.025Z,76.32
2018-12-25T05:22:35.682Z,76.07
2018-12-25T05:23:36.371Z,76.42
2018-12-25T05:24:37.025Z,76.79
2018-12-25T05:25:37.718Z,76.53
2018-12-25T05:26:38.362Z,76.73
2018-12-25T05:27:39.132Z,76.83
2018-12-25T05:28:39.707Z,76.53
2018-12-25T05:29:40.401Z,76.63
2018-12-25T05:30:41.046Z,76.93
2018-12-25T05:31:49.322Z,76.73
2018-12-25T05:32:49.974Z,76.11
2018-12-25T05:33:50.667Z,76.39
2018-12-25T05:34:51.315Z,76.73
2018-12-25T05:35:54.066Z,76.83
2018-12-25T05:36:54.719Z,76.73
2018-12-25T05:37:55.402Z,77.04
2018-12-25T05:38:56.054Z,76.83
2018-12-25T05:39:56.746Z,76.83
2018-12-25T05:40:57.395Z,77.00
2018-12-25T05:41:58.100Z,77.04
2018-12-25T05:42:58.772Z,76.21
2018-12-25T05:45:09.896Z,76.42
2018-12-25T05:46:11.643Z,76.42
2018-12-25T05:47:12.289Z,76.11
2018-12-25T05:48:12.979Z,76.35
2018-12-25T05:49:13.943Z,76.35
2018-12-25T05:50:16.679Z,76.32
2018-12-25T05:51:17.335Z,76.46
2018-12-25T05:52:20.078Z,76.56
2018-12-25T05:53:20.728Z,76.25
2018-12-25T05:54:22.450Z,76.15
2018-12-25T05:55:23.097Z,76.56
2018-12-25T05:56:24.816Z,76.56
2018-12-25T05:57:25.466Z,76.97
2018-12-25T05:58:40.806Z,76.87
2018-12-25T05:59:41.454Z,76.66
2018-12-25T06:00:43.170Z,76.87
2018-12-25T06:01:43.825Z,76.25
2018-12-25T06:02:52.324Z,76.46
2018-12-25T06:03:52.952Z,76.35
2018-12-25T06:04:53.651Z,76.46
2018-12-25T06:05:54.573Z,76.76
2018-12-25T06:06:56.387Z,76.73
2018-12-25T06:07:56.980Z,76.42
2018-12-25T06:08:58.695Z,76.46
2018-12-25T06:09:59.341Z,76.66
2018-12-25T06:11:00.041Z,76.53
2018-12-25T06:12:00.690Z,76.21
2018-12-25T06:13:08.349Z,76.73
2018-12-25T06:14:08.997Z,76.53
2018-12-25T06:15:09.690Z,77.04
2018-12-25T06:16:10.341Z,76.83
2018-12-25T06:17:11.033Z,76.73
2018-12-25T06:18:11.684Z,76.73
2018-12-25T06:19:12.384Z,76.83
2018-12-25T06:20:13.029Z,77.14
2018-12-25T06:21:13.904Z,77.04
2018-12-25T06:22:14.662Z,77.25
2018-12-25T06:23:15.315Z,77.25
2018-12-25T06:24:17.033Z,77.00
2018-12-25T06:25:17.688Z,77.45
2018-12-25T06:26:18.454Z,77.45
2018-12-25T06:27:19.020Z,77.31
2018-12-25T06:28:19.723Z,77.51
2018-12-25T06:29:20.366Z,77.31
2018-12-25T06:30:21.069Z,77.21
2018-12-25T06:31:21.728Z,77.51
2018-12-25T06:32:22.414Z,77.11
2018-12-25T06:33:23.065Z,77.42
2018-12-25T06:34:23.758Z,76.93
2018-12-25T06:35:24.443Z,77.11
2018-12-25T06:36:25.103Z,77.21
2018-12-25T06:37:25.751Z,77.11
2018-12-25T06:38:26.446Z,77.11
2018-12-25T06:39:27.211Z,77.00
2018-12-25T06:40:27.978Z,77.21
2018-12-25T06:41:28.545Z,77.21
2018-12-25T06:42:29.242Z,76.79
2018-12-25T06:43:29.889Z,76.70
2018-12-25T06:44:30.588Z,76.90
2018-12-25T06:45:31.244Z,77.00
2018-12-25T06:46:31.930Z,76.70
2018-12-25T06:47:32.578Z,77.00
2018-12-25T06:48:33.277Z,76.79
2018-12-25T06:49:33.923Z,76.59
2018-12-25T06:50:34.620Z,76.07
2018-12-25T06:51:35.267Z,76.18
2018-12-25T06:52:35.969Z,76.07
2018-12-25T06:53:36.621Z,76.32
2018-12-25T06:54:39.363Z,76.53
2018-12-25T06:55:37.963Z,75.35
2018-12-25T06:56:38.735Z,75.97
2018-12-25T06:57:39.314Z,75.97
2018-12-25T06:58:40.002Z,76.11
2018-12-25T06:59:40.652Z,76.63
2018-12-25T07:00:41.347Z,76.42
2018-12-25T07:01:41.996Z,76.01
2018-12-25T07:02:42.681Z,76.42
2018-12-25T07:03:43.462Z,76.59
2018-12-25T07:04:44.024Z,76.21
2018-12-25T07:05:44.676Z,76.11
2018-12-25T07:06:45.371Z,76.42
2018-12-25T07:07:46.033Z,76.39
2018-12-25T07:08:46.711Z,76.21
2018-12-25T07:09:47.371Z,76.11
2018-12-25T07:10:48.060Z,76.18
2018-12-25T07:11:48.709Z,75.46
2018-12-25T07:12:49.409Z,75.49
2018-12-25T07:13:50.055Z,75.90
2018-12-25T07:14:50.734Z,76.32
2018-12-25T07:15:51.385Z,76.11
2018-12-25T07:16:52.075Z,76.01
2018-12-25T07:17:52.778Z,75.60
2018-12-25T07:18:53.423Z,76.07
2018-12-25T07:19:54.075Z,75.81
2018-12-25T07:20:54.770Z,75.60
2018-12-25T07:21:55.421Z,75.90
2018-12-25T07:22:56.112Z,76.01
2018-12-25T07:23:56.763Z,76.01
2018-12-25T07:24:57.969Z,76.01
2018-12-25T07:25:58.619Z,75.70
2018-12-25T07:26:59.309Z,75.81
2018-12-25T07:27:59.960Z,76.42
2018-12-25T07:29:00.655Z,76.73
2018-12-25T07:30:01.311Z,76.73
2018-12-25T07:31:02.021Z,76.53
2018-12-25T07:32:02.647Z,76.53
2018-12-25T07:33:05.234Z,76.21
2018-12-25T07:34:05.940Z,76.18
2018-12-25T07:35:06.598Z,75.49
2018-12-25T07:36:07.250Z,75.60
2018-12-25T07:37:07.980Z,76.32
2018-12-25T07:38:08.412Z,76.01
2018-12-25T07:39:09.164Z,76.32
2018-12-25T07:40:09.804Z,76.21
2018-12-25T07:41:11.538Z,75.70
2018-12-25T07:42:12.188Z,76.11
2018-12-25T07:43:12.837Z,76.28
2018-12-25T07:44:20.260Z,76.21
2018-12-25T07:45:20.937Z,76.01
2018-12-25T07:46:22.583Z,76.01
2018-12-25T07:47:23.223Z,76.32
2018-12-25T07:48:23.965Z,76.21
2018-12-25T07:49:24.607Z,76.21
2018-12-25T07:50:25.317Z,76.01
2018-12-25T07:51:25.935Z,76.49
2018-12-25T07:52:26.894Z,76.01
2018-12-25T07:53:27.309Z,76.07
2018-12-25T07:54:28.020Z,76.01
2018-12-25T07:55:28.671Z,76.39
2018-12-25T07:56:29.356Z,75.97
2018-12-25T07:57:30.002Z,76.21
2018-12-25T07:58:30.702Z,76.32
2018-12-25T07:59:31.348Z,76.73
2018-12-25T08:00:32.051Z,76.49
2018-12-25T08:01:32.703Z,76.39
2018-12-25T08:02:33.392Z,76.07
2018-12-25T08:03:34.046Z,76.18
2018-12-25T08:04:34.739Z,75.97
2018-12-25T08:05:35.406Z,76.49
2018-12-25T08:06:36.073Z,75.97
2018-12-25T08:07:36.734Z,76.59
2018-12-25T08:08:37.422Z,75.97
2018-12-25T08:09:38.077Z,76.28
2018-12-25T08:10:38.771Z,76.49
2018-12-25T08:11:39.428Z,76.39
2018-12-25T08:12:40.068Z,75.97
2018-12-25T08:13:40.731Z,75.97
2018-12-25T08:14:41.389Z,75.77
2018-12-25T08:15:42.083Z,76.28
2018-12-25T08:16:42.938Z,76.45
2018-12-25T08:17:43.632Z,76.45
2018-12-25T08:18:44.280Z,76.59
2018-12-25T08:19:44.976Z,76.49
2018-12-25T08:20:45.625Z,76.66
2018-12-25T08:21:46.319Z,76.56
2018-12-25T08:22:46.964Z,76.56
2018-12-25T08:23:47.668Z,76.76
2018-12-25T08:24:48.320Z,76.45
2018-12-25T08:25:49.018Z,76.56
2018-12-25T08:26:49.660Z,76.66
2018-12-25T08:27:50.362Z,76.76
2018-12-25T08:28:51.014Z,76.66
2018-12-25T08:29:51.705Z,76.66
2018-12-25T08:30:52.353Z,76.73
2018-12-25T08:31:53.054Z,76.56
2018-12-25T08:32:53.995Z,76.11
2018-12-25T08:33:54.706Z,75.49
2018-12-25T08:34:55.354Z,76.31
2018-12-25T08:35:56.051Z,75.49
2018-12-25T08:36:56.693Z,75.29
2018-12-25T08:37:57.417Z,75.49
2018-12-25T08:38:58.036Z,75.90
2018-12-25T08:39:58.741Z,75.70
2018-12-25T08:40:59.400Z,76.11
2018-12-25T08:42:00.086Z,76.42
2018-12-25T08:43:00.736Z,75.80
2018-12-25T08:44:01.427Z,75.59
2018-12-25T08:45:02.091Z,75.29
2018-12-25T08:46:02.778Z,75.25
2018-12-25T08:47:03.442Z,75.18
2018-12-25T08:48:04.076Z,75.25
2018-12-25T08:49:04.717Z,74.67
2018-12-25T08:50:05.374Z,74.77
2018-12-25T08:51:06.023Z,75.29
2018-12-25T08:52:06.677Z,74.74
2018-12-25T08:53:07.314Z,74.95
2018-12-25T08:54:07.964Z,74.12
2018-12-25T08:55:08.610Z,74.43
2018-12-25T08:56:09.262Z,74.12
2018-12-25T08:57:10.421Z,74.12
2018-12-25T08:58:11.062Z,73.50
2018-12-25T08:59:11.713Z,73.30
2018-12-25T09:00:12.362Z,73.02
2018-12-25T09:01:13.019Z,72.92
2018-12-25T09:02:13.682Z,73.40
2018-12-25T09:03:14.315Z,72.99
2018-12-25T09:04:14.960Z,73.50
2018-12-25T09:05:15.618Z,73.40
2018-12-25T09:06:16.268Z,72.61
2018-12-25T09:07:17.171Z,73.19
2018-12-25T09:08:17.828Z,72.99
2018-12-25T09:09:18.466Z,72.99
2018-12-25T09:10:19.126Z,72.68
2018-12-25T09:11:19.834Z,73.30
2018-12-25T09:12:20.477Z,72.99
2018-12-25T09:13:21.198Z,72.78
2018-12-25T09:14:21.843Z,72.58
2018-12-25T09:15:22.522Z,72.78
2018-12-25T09:16:23.178Z,72.47
2018-12-25T09:17:23.859Z,72.47
2018-12-25T09:18:24.530Z,72.44
2018-12-25T09:19:25.166Z,71.86
2018-12-25T09:20:25.818Z,72.55
2018-12-25T09:21:26.473Z,73.06
2018-12-25T09:22:27.122Z,72.03
2018-12-25T09:23:27.767Z,72.65
2018-12-25T09:24:28.666Z,72.34
2018-12-25T09:25:29.317Z,72.61
2018-12-25T09:26:29.956Z,71.41
2018-12-25T09:27:30.619Z,71.41
2018-12-25T09:28:31.268Z,72.13
2018-12-25T09:29:31.940Z,72.44
2018-12-25T09:30:32.584Z,71.59
2018-12-25T09:31:33.231Z,71.11
2018-12-25T09:32:33.898Z,71.41
2018-12-25T09:33:34.549Z,71.21
2018-12-25T09:34:35.201Z,70.76
2018-12-25T09:35:35.879Z,71.41
2018-12-25T09:36:36.540Z,71.41
2018-12-25T09:37:37.213Z,72.27
2018-12-25T09:38:37.875Z,72.65
2018-12-25T09:39:38.557Z,72.75
2018-12-25T09:40:39.208Z,72.13
2018-12-25T09:41:39.856Z,71.34
2018-12-25T09:42:40.504Z,71.24
2018-12-25T09:43:41.250Z,71.11
2018-12-25T09:44:41.904Z,71.04
2018-12-25T09:45:42.543Z,71.41
2018-12-25T09:46:43.189Z,71.31
2018-12-25T09:47:43.940Z,71.04
2018-12-25T09:48:44.587Z,72.17
2018-12-25T09:49:45.286Z,72.68
2018-12-25T09:50:45.930Z,71.04
2018-12-25T09:51:54.383Z,71.45
2018-12-25T09:52:47.231Z,72.78
2018-12-25T09:53:47.878Z,72.78
2018-12-25T09:54:48.520Z,71.24
2018-12-25T09:55:49.180Z,71.41
2018-12-25T09:56:49.817Z,71.41
2018-12-25T09:57:50.473Z,71.21
2018-12-25T09:58:51.117Z,71.38
2018-12-25T09:59:51.764Z,71.31
2018-12-25T10:00:52.542Z,71.08
2018-12-25T10:01:53.186Z,71.41
2018-12-25T10:02:53.853Z,71.48
2018-12-25T10:03:54.497Z,71.14
2018-12-25T10:04:56.578Z,70.63
2018-12-25T10:05:56.870Z,70.18
2018-12-25T10:06:57.519Z,69.78
2018-12-25T10:07:58.230Z,70.08
2018-12-25T10:08:58.887Z,70.26
2018-12-25T10:09:59.525Z,70.18
2018-12-25T10:11:00.175Z,70.77
2018-12-25T10:12:00.832Z,69.33
2018-12-25T10:13:01.513Z,70.22
2018-12-25T10:14:02.172Z,69.71
2018-12-25T10:15:02.921Z,69.71
2018-12-25T10:16:03.574Z,69.47
2018-12-25T10:17:04.248Z,69.57
2018-12-25T10:18:04.892Z,70.29
2018-12-25T10:19:05.536Z,70.09
2018-12-25T10:20:06.203Z,70.29
2018-12-25T10:21:06.842Z,69.98
2018-12-25T10:22:07.489Z,68.96
2018-12-25T10:23:08.137Z,69.17
2018-12-25T10:24:08.794Z,69.27
2018-12-25T10:25:09.439Z,69.06
2018-12-25T10:26:10.100Z,69.06
2018-12-25T10:27:10.770Z,69.06
2018-12-25T10:28:11.435Z,69.54
2018-12-25T10:29:12.115Z,67.77
2018-12-25T10:30:12.765Z,67.57
2018-12-25T10:31:13.479Z,68.28
2018-12-25T10:32:14.105Z,68.28
2018-12-25T10:33:14.809Z,68.35
2018-12-25T10:34:15.455Z,67.94
2018-12-25T10:35:16.188Z,67.97
2018-12-25T10:36:16.836Z,67.67
2018-12-25T10:37:17.602Z,68.08
2018-12-25T10:38:18.247Z,68.25
2018-12-25T10:39:18.949Z,67.36
2018-12-25T10:40:19.601Z,67.54
2018-12-25T10:41:20.287Z,67.33
2018-12-25T10:42:20.936Z,66.89
2018-12-25T10:43:21.631Z,65.77
2018-12-25T10:44:22.283Z,65.97
2018-12-25T10:45:22.976Z,66.10
2018-12-25T10:46:23.628Z,65.77
2018-12-25T10:47:24.294Z,65.59
2018-12-25T10:48:25.061Z,64.57
2018-12-25T10:49:25.699Z,65.39
2018-12-25T10:50:26.355Z,65.69
2018-12-25T10:51:27.111Z,65.90
2018-12-25T10:52:27.765Z,65.08
2018-12-25T10:53:28.464Z,65.39
2018-12-25T10:54:29.108Z,66.10
2018-12-25T10:55:29.799Z,65.90
2018-12-25T10:56:30.450Z,66.10
2018-12-25T10:57:31.103Z,66.10
2018-12-25T10:58:31.868Z,66.41
2018-12-25T10:59:32.520Z,66.31
2018-12-25T11:00:33.171Z,66.51
2018-12-25T11:01:33.828Z,66.07
2018-12-25T11:02:34.491Z,65.77
2018-12-25T11:03:35.150Z,65.97
2018-12-25T11:04:35.799Z,66.17
2018-12-25T11:05:36.447Z,65.77
2018-12-25T11:06:37.096Z,66.07
2018-12-25T11:07:37.747Z,66.07
2018-12-25T11:08:38.394Z,66.58
2018-12-25T11:09:39.113Z,66.99
2018-12-25T11:10:39.763Z,64.64
2018-12-25T11:11:40.478Z,64.74
2018-12-25T11:12:41.108Z,65.36
2018-12-25T11:13:41.954Z,65.05
2018-12-25T11:14:42.615Z,65.66
2018-12-25T11:15:44.326Z,66.28
2018-12-25T11:16:44.976Z,65.90
2018-12-25T11:17:45.772Z,66.38
2018-12-25T11:18:49.147Z,66.31
2018-12-25T11:19:47.117Z,66.00
2018-12-25T11:20:47.773Z,66.17
2018-12-25T11:21:48.418Z,66.28
2018-12-25T11:22:49.073Z,66.07
2018-12-25T11:23:49.730Z,66.17
2018-12-25T11:24:50.385Z,65.77
2018-12-25T11:25:51.019Z,66.14
2018-12-25T11:26:51.622Z,65.53
2018-12-25T11:27:52.218Z,65.73
2018-12-25T11:28:53.087Z,65.19
2018-12-25T11:29:53.692Z,65.50
2018-12-25T11:30:54.290Z,64.78
2018-12-25T11:31:54.882Z,64.58
2018-12-25T11:32:55.471Z,65.16
2018-12-25T11:33:56.065Z,65.06
2018-12-25T11:34:56.679Z,64.52
2018-12-25T11:35:57.294Z,64.49
2018-12-25T11:36:57.896Z,64.18
2018-12-25T11:37:58.488Z,64.11
2018-12-25T11:38:59.085Z,64.31
2018-12-25T11:39:59.685Z,64.55
2018-12-25T11:41:00.299Z,63.40
2018-12-25T11:42:00.890Z,63.87
2018-12-25T11:43:01.487Z,63.87
2018-12-25T11:44:02.084Z,64.08
2018-12-25T11:45:02.682Z,63.09
2018-12-25T11:46:03.275Z,62.65
2018-12-25T11:47:04.075Z,63.06
2018-12-25T11:48:04.676Z,63.16
2018-12-25T11:49:05.282Z,63.98
2018-12-25T11:50:06.061Z,63.37
2018-12-25T11:51:06.654Z,62.45
2018-12-25T11:52:07.402Z,62.73
2018-12-25T11:53:07.998Z,62.29
2018-12-25T11:54:08.749Z,61.78
2018-12-25T11:55:09.639Z,61.68
2018-12-25T11:56:10.403Z,62.29
2018-12-25T11:57:10.994Z,60.99
2018-12-25T11:58:12.164Z,61.27
2018-12-25T11:59:12.193Z,61.88
2018-12-25T12:00:12.786Z,61.57
2018-12-25T12:01:13.375Z,62.08
2018-12-25T12:02:17.187Z,61.44
2018-12-25T12:03:15.771Z,61.85
2018-12-25T12:04:16.381Z,61.04
2018-12-25T12:05:16.972Z,60.80
2018-12-25T12:06:17.582Z,62.02
2018-12-25T12:07:18.175Z,61.41
2018-12-25T12:08:18.772Z,60.91
2018-12-25T12:09:19.378Z,59.48
2018-12-25T12:10:19.977Z,59.61
2018-12-25T12:11:20.590Z,59.51
2018-12-25T12:12:21.187Z,59.68
2018-12-25T12:13:21.781Z,59.48
2018-12-25T12:14:22.381Z,59.53
2018-12-25T12:15:22.973Z,58.94
2018-12-25T12:16:23.574Z,58.34
2018-12-25T12:17:24.292Z,56.26
2018-12-25T12:18:24.887Z,56.49
2018-12-25T12:19:25.485Z,57.10
2018-12-25T12:20:26.156Z,56.31
2018-12-25T12:21:26.754Z,56.65
2018-12-25T12:22:27.374Z,56.95
2018-12-25T12:23:27.952Z,57.28
2018-12-25T12:24:28.555Z,56.77
2018-12-25T12:25:29.149Z,56.80
2018-12-25T12:26:29.751Z,56.32
2018-12-25T12:27:30.348Z,56.01
2018-12-25T12:28:30.945Z,56.21
2018-12-25T12:29:31.544Z,56.29
2018-12-25T12:30:32.142Z,57.03
2018-12-25T12:31:32.736Z,57.23
2018-12-25T12:32:33.332Z,56.55
2018-12-25T12:33:33.931Z,57.56
2018-12-25T12:34:34.525Z,58.51
2018-12-25T12:35:35.124Z,58.13
2018-12-25T12:36:35.937Z,58.84
2018-12-25T12:37:36.538Z,58.64
2018-12-25T12:38:37.133Z,58.53
2018-12-25T12:39:37.734Z,58.74
2018-12-25T12:40:38.334Z,58.33
2018-12-25T12:41:38.963Z,58.74
2018-12-25T12:42:39.564Z,58.94
2018-12-25T12:43:40.164Z,59.14
2018-12-25T12:44:40.758Z,59.55
2018-12-25T12:45:41.352Z,59.28
2018-12-25T12:46:41.950Z,59.48
2018-12-25T12:47:42.548Z,59.58
2018-12-25T12:48:43.158Z,59.81
2018-12-25T12:49:43.753Z,59.51
2018-12-25T12:50:44.347Z,60.66
2018-12-25T12:51:44.966Z,59.74
2018-12-25T12:52:45.972Z,59.87
2018-12-25T12:53:46.131Z,60.89
2018-12-25T12:54:46.729Z,61.30
2018-12-25T12:55:47.324Z,61.30
2018-12-25T12:56:47.917Z,61.30
2018-12-25T12:57:48.517Z,60.89
2018-12-25T12:58:49.116Z,59.53
2018-12-25T12:59:49.713Z,59.20
2018-12-25T13:00:50.305Z,59.64
2018-12-25T13:01:50.906Z,59.23
2018-12-25T13:02:51.506Z,60.38
2018-12-25T13:03:52.123Z,60.38
2018-12-25T13:04:52.715Z,59.87
2018-12-25T13:05:53.313Z,59.66
2018-12-25T13:06:53.919Z,60.89